Time;durP1;ratioP1;P1;durP2;ratioP2;P2;SDS_P1;SDS_P2;PMS_P1;PMS_P2;Temp;Humidity;BMP_temperature;BMP_pressure;BME280_temperature;BME280_humidity;BME280_pressure;Samples;Min_cycle;Max_cycle;Signal;HPM_P1;HPM_P2
2023/06/25 00:00:28;;;;;;;7.35;5.90;;;17.60;99.90;;;;;;5114997;28;20145;-74
2023/06/25 00:02:54;;;;;;;7.82;6.15;;;17.60;99.90;;;;;;5114653;28;20023;-73
2023/06/25 00:05:20;;;;;;;9.73;6.68;;;17.50;99.90;;;;;;5114653;28;20020;-72
2023/06/25 00:07:46;;;;;;;7.18;5.75;;;17.50;99.90;;;;;;5114569;28;20364;-73
2023/06/25 00:10:12;;;;;;;10.10;6.38;;;17.50;99.90;;;;;;5114904;28;20020;-73
2023/06/25 00:12:37;;;;;;;7.78;5.95;;;17.50;99.90;;;;;;5114440;28;20080;-74
2023/06/25 00:15:03;;;;;;;9.48;6.65;;;17.40;99.90;;;;;;5114684;28;20015;-74
2023/06/25 00:17:29;;;;;;;8.25;6.13;;;17.40;99.90;;;;;;5096431;28;20020;-73
2023/06/25 00:19:56;;;;;;;6.88;5.55;;;17.40;99.90;;;;;;5114240;28;20096;-73
2023/06/25 00:22:22;;;;;;;9.00;6.20;;;17.40;99.90;;;;;;5114556;28;20119;-72
2023/06/25 00:24:48;;;;;;;8.98;6.43;;;17.40;99.90;;;;;;5114111;28;20394;-72
2023/06/25 00:27:13;;;;;;;9.70;6.72;;;17.30;99.90;;;;;;5114279;28;20049;-72
2023/06/25 00:29:39;;;;;;;8.90;6.75;;;17.30;99.90;;;;;;5113683;28;20116;-75
2023/06/25 00:32:05;;;;;;;10.02;6.07;;;17.30;99.90;;;;;;5114563;28;20054;-73
2023/06/25 00:34:30;;;;;;;8.02;6.30;;;17.20;99.90;;;;;;5123388;27;20340;-74
2023/06/25 00:36:56;;;;;;;11.18;7.05;;;17.20;99.90;;;;;;5134538;27;20335;-73
2023/06/25 00:39:22;;;;;;;7.20;5.95;;;17.20;99.90;;;;;;5134890;27;20105;-72
2023/06/25 00:41:48;;;;;;;8.52;6.03;;;17.20;99.90;;;;;;5134589;27;20084;-73
2023/06/25 00:44:14;;;;;;;9.68;6.38;;;17.20;99.90;;;;;;5134918;27;20144;-73
2023/06/25 00:46:40;;;;;;;7.22;6.15;;;17.20;99.90;;;;;;5134319;27;20043;-74
2023/06/25 00:49:06;;;;;;;7.70;5.50;;;17.20;99.90;;;;;;5134662;27;20044;-73
2023/06/25 00:51:35;;;;;;;8.30;6.35;;;17.10;99.90;;;;;;5134410;27;20455;-72
2023/06/25 00:54:05;;;;;;;8.02;6.72;;;17.10;99.90;;;;;;5112696;27;20019;-73
2023/06/25 00:56:37;;;;;;;10.30;6.85;;;17.10;99.90;;;;;;5134555;27;20019;-72
2023/06/25 00:59:03;;;;;;;8.38;6.38;;;17.10;99.90;;;;;;5134347;27;20027;-72
2023/06/25 01:01:54;;;;;;;7.68;6.40;;;17.10;99.90;;;;;;5134429;27;20034;-73
2023/06/25 01:04:25;;;;;;;9.68;6.72;;;17.00;99.90;;;;;;5134520;27;20027;-72
2023/06/25 01:06:56;;;;;;;6.70;6.00;;;17.00;99.90;;;;;;5133978;27;20038;-73
2023/06/25 01:09:24;;;;;;;7.57;6.00;;;17.00;99.90;;;;;;5134428;27;20019;-73
2023/06/25 01:12:07;;;;;;;8.57;6.05;;;17.00;99.90;;;;;;5133818;27;20320;-74
2023/06/25 01:14:34;;;;;;;8.77;6.68;;;16.90;99.90;;;;;;5134232;27;20026;-73
2023/06/25 01:17:00;;;;;;;8.82;7.28;;;16.90;99.90;;;;;;5133674;27;20255;-73
2023/06/25 01:19:31;;;;;;;7.90;6.70;;;16.90;99.90;;;;;;5134109;27;20019;-73
2023/06/25 01:22:01;;;;;;;9.20;5.82;;;16.90;99.90;;;;;;5133585;27;20058;-73
2023/06/25 01:24:28;;;;;;;9.02;6.07;;;16.90;99.90;;;;;;5134142;27;20080;-73
2023/06/25 01:26:59;;;;;;;9.35;6.78;;;16.90;99.90;;;;;;5134823;27;20068;-74
2023/06/25 01:29:26;;;;;;;8.70;6.75;;;16.80;99.90;;;;;;5130814;28;20023;-73
2023/06/25 01:31:52;;;;;;;8.35;6.55;;;16.90;99.90;;;;;;5133529;27;20347;-73
2023/06/25 01:34:21;;;;;;;8.73;7.05;;;16.80;99.90;;;;;;5133912;27;20027;-73
2023/06/25 01:36:51;;;;;;;8.10;6.45;;;16.80;99.90;;;;;;5133763;27;20076;-74
2023/06/25 01:39:17;;;;;;;9.45;7.15;;;16.80;99.90;;;;;;5133846;27;20140;-73
2023/06/25 01:41:44;;;;;;;9.43;6.15;;;16.80;99.90;;;;;;5133466;28;20511;-74
2023/06/25 01:44:13;;;;;;;7.90;6.47;;;16.80;99.90;;;;;;5133821;28;20019;-73
2023/06/25 01:46:38;;;;;;;9.25;6.03;;;16.80;99.90;;;;;;5133832;28;20494;-72
2023/06/25 01:49:04;;;;;;;8.10;6.97;;;16.80;99.90;;;;;;5115031;28;20023;-72
2023/06/25 01:51:31;;;;;;;8.10;6.38;;;16.80;99.90;;;;;;5133745;28;20027;-72
2023/06/25 01:53:57;;;;;;;8.95;7.20;;;16.80;99.90;;;;;;5133311;28;20054;-72
2023/06/25 01:56:23;;;;;;;8.98;6.60;;;16.80;99.90;;;;;;5133763;28;20080;-72
2023/06/25 01:58:52;;;;;;;10.45;6.93;;;16.80;99.90;;;;;;5133306;28;20418;-72
2023/06/25 02:01:18;;;;;;;8.60;6.88;;;16.80;99.90;;;;;;5133706;28;20478;-72
2023/06/25 02:03:44;;;;;;;8.85;6.65;;;16.80;99.90;;;;;;5133007;28;20019;-74
2023/06/25 02:06:10;;;;;;;8.00;6.40;;;16.80;99.90;;;;;;5133266;28;20028;-73
2023/06/25 02:08:35;;;;;;;7.68;6.75;;;16.80;99.90;;;;;;5133672;28;20019;-73
2023/06/25 02:11:01;;;;;;;7.00;5.93;;;16.80;99.90;;;;;;5132980;28;20038;-73
2023/06/25 02:13:27;;;;;;;8.63;6.78;;;16.80;99.90;;;;;;5133671;28;20059;-73
2023/06/25 02:15:52;;;;;;;9.20;6.93;;;16.80;99.90;;;;;;5133127;28;20027;-72
2023/06/25 02:18:18;;;;;;;10.02;6.75;;;16.80;99.90;;;;;;5133965;28;20015;-72
2023/06/25 02:20:43;;;;;;;9.52;6.97;;;16.80;99.90;;;;;;5133485;28;20020;-72
2023/06/25 02:23:09;;;;;;;9.63;7.07;;;16.80;99.90;;;;;;5132994;28;20019;-73
2023/06/25 02:25:35;;;;;;;10.48;6.85;;;16.80;99.90;;;;;;5133502;28;20019;-73
2023/06/25 02:28:00;;;;;;;9.30;6.70;;;16.80;99.90;;;;;;5133086;28;20371;-73
2023/06/25 02:30:26;;;;;;;9.75;7.20;;;16.80;99.90;;;;;;5133726;28;20035;-73
2023/06/25 02:32:51;;;;;;;9.20;7.07;;;16.80;99.90;;;;;;5123227;28;20023;-73
2023/06/25 02:35:17;;;;;;;11.75;7.22;;;16.80;99.90;;;;;;5112717;28;20412;-73
2023/06/25 02:37:42;;;;;;;10.90;7.50;;;16.80;99.90;;;;;;5112550;28;20016;-72
2023/06/25 02:40:10;;;;;;;8.43;7.53;;;16.80;99.90;;;;;;5112387;28;20027;-72
2023/06/25 02:42:35;;;;;;;8.57;7.10;;;16.70;99.90;;;;;;5112544;28;20020;-73
2023/06/25 02:45:01;;;;;;;10.52;7.70;;;16.70;99.90;;;;;;5114585;28;20026;-70
2023/06/25 02:47:27;;;;;;;9.65;7.93;;;16.70;99.90;;;;;;5112748;28;20023;-74
2023/06/25 02:49:52;;;;;;;11.18;7.68;;;16.70;99.90;;;;;;5112029;28;20034;-74
2023/06/25 02:52:18;;;;;;;10.20;7.72;;;16.70;99.90;;;;;;5115363;28;20507;-74
2023/06/25 02:54:43;;;;;;;9.02;7.45;;;16.70;99.90;;;;;;5116331;28;20110;-74
2023/06/25 02:57:09;;;;;;;11.38;7.35;;;16.70;99.90;;;;;;5115685;28;20452;-73
2023/06/25 02:59:35;;;;;;;11.48;7.53;;;16.60;99.90;;;;;;5116541;28;20028;-73
2023/06/25 03:02:00;;;;;;;9.43;7.80;;;16.60;99.90;;;;;;5115739;28;20067;-73
2023/06/25 03:04:26;;;;;;;10.85;8.15;;;16.60;99.90;;;;;;5116204;28;20431;-73
2023/06/25 03:06:51;;;;;;;10.20;8.13;;;16.60;99.90;;;;;;5115768;28;20026;-74
2023/06/25 03:09:17;;;;;;;11.80;8.40;;;16.60;99.90;;;;;;5116096;28;20330;-73
2023/06/25 03:11:42;;;;;;;12.07;8.10;;;16.60;99.90;;;;;;5116110;28;20057;-73
2023/06/25 03:14:08;;;;;;;12.15;8.38;;;16.50;99.90;;;;;;5115353;28;20024;-73
2023/06/25 03:16:34;;;;;;;9.60;8.13;;;16.60;99.90;;;;;;5115998;28;20107;-73
2023/06/25 03:19:00;;;;;;;10.85;8.35;;;16.50;99.90;;;;;;5115501;28;20462;-71
2023/06/25 03:21:25;;;;;;;10.75;7.88;;;16.50;99.90;;;;;;5115946;28;20027;-73
2023/06/25 03:23:51;;;;;;;9.15;7.82;;;16.50;99.90;;;;;;5115656;28;20113;-72
2023/06/25 03:26:17;;;;;;;13.07;8.55;;;16.50;99.90;;;;;;5116040;28;20362;-74
2023/06/25 03:28:42;;;;;;;10.40;7.40;;;16.50;99.90;;;;;;5115767;28;20026;-73
2023/06/25 03:31:08;;;;;;;10.30;7.78;;;16.50;99.90;;;;;;5115280;28;20022;-73
2023/06/25 03:33:34;;;;;;;13.45;8.38;;;16.50;99.90;;;;;;5115555;28;20016;-73
2023/06/25 03:35:59;;;;;;;10.32;8.05;;;16.50;99.90;;;;;;5115158;28;20444;-74
2023/06/25 03:38:25;;;;;;;9.98;8.45;;;16.50;99.90;;;;;;5127274;27;20079;-73
2023/06/25 03:40:51;;;;;;;10.75;8.07;;;16.60;99.90;;;;;;5135484;27;20038;-76
2023/06/25 03:43:16;;;;;;;9.93;7.93;;;16.60;99.90;;;;;;5135995;27;20102;-74
2023/06/25 03:45:42;;;;;;;9.52;8.48;;;16.60;99.90;;;;;;5135868;27;20109;-73
2023/06/25 03:48:07;;;;;;;11.85;8.73;;;16.60;99.90;;;;;;5135429;27;20088;-74
2023/06/25 03:50:33;;;;;;;11.48;8.40;;;16.60;99.90;;;;;;5136203;27;20038;-73
2023/06/25 03:53:00;;;;;;;10.80;8.75;;;16.60;99.90;;;;;;5135380;27;20015;-73
2023/06/25 03:55:25;;;;;;;10.60;7.97;;;16.70;99.90;;;;;;5135714;27;20375;-73
2023/06/25 03:57:51;;;;;;;11.27;7.68;;;16.70;99.90;;;;;;5135731;27;20031;-73
2023/06/25 04:00:17;;;;;;;9.93;8.15;;;16.80;99.90;;;;;;5135698;27;20023;-73
2023/06/25 04:02:42;;;;;;;10.40;7.88;;;16.90;99.90;;;;;;5134314;27;20409;-73
2023/06/25 04:05:08;;;;;;;12.35;8.55;;;16.90;99.90;;;;;;5135200;27;20023;-73
2023/06/25 04:07:34;;;;;;;9.50;7.93;;;17.00;99.90;;;;;;5135527;27;20497;-73
2023/06/25 04:09:59;;;;;;;10.02;7.68;;;17.00;99.90;;;;;;5135044;27;20019;-74
2023/06/25 04:12:25;;;;;;;8.95;7.43;;;17.10;99.90;;;;;;5135086;27;20023;-74
2023/06/25 04:14:50;;;;;;;9.13;7.95;;;17.20;99.90;;;;;;5135390;27;20087;-73
2023/06/25 04:17:16;;;;;;;10.13;7.70;;;17.30;99.90;;;;;;5134554;27;20102;-73
2023/06/25 04:19:42;;;;;;;9.63;7.63;;;17.50;99.90;;;;;;5116957;27;20023;-73
2023/06/25 04:22:08;;;;;;;8.68;7.22;;;17.70;99.90;;;;;;5134646;27;20066;-73
2023/06/25 04:24:33;;;;;;;8.88;7.97;;;17.80;99.90;;;;;;5135173;27;20419;-73
2023/06/25 04:26:59;;;;;;;9.25;7.65;;;17.90;99.90;;;;;;5134728;27;20042;-73
2023/06/25 04:29:24;;;;;;;10.77;8.15;;;18.00;99.90;;;;;;5134766;27;20472;-73
2023/06/25 04:31:50;;;;;;;9.48;7.82;;;18.20;99.90;;;;;;5134742;27;20058;-73
2023/06/25 04:34:15;;;;;;;10.52;7.28;;;18.30;99.90;;;;;;5132723;27;20110;-73
2023/06/25 04:36:41;;;;;;;8.82;6.97;;;18.40;99.90;;;;;;5134646;27;20019;-74
2023/06/25 04:39:07;;;;;;;8.93;7.00;;;18.60;99.90;;;;;;5134504;27;20031;-73
2023/06/25 04:41:32;;;;;;;11.05;7.18;;;18.60;99.90;;;;;;5134439;27;20129;-73
2023/06/25 04:43:58;;;;;;;8.90;7.10;;;18.70;99.90;;;;;;5134426;27;20040;-74
2023/06/25 04:46:23;;;;;;;8.80;6.75;;;18.70;99.90;;;;;;5134756;27;20038;-73
2023/06/25 04:48:50;;;;;;;9.32;7.40;;;18.70;99.90;;;;;;5115928;27;20110;-73
2023/06/25 04:51:16;;;;;;;8.07;6.95;;;18.70;99.90;;;;;;5116948;27;20031;-73
2023/06/25 04:53:42;;;;;;;9.50;7.25;;;18.70;99.90;;;;;;5113953;28;20029;-73
2023/06/25 04:56:08;;;;;;;9.65;7.53;;;18.80;99.90;;;;;;5113821;28;20027;-74
2023/06/25 04:58:35;;;;;;;9.25;7.05;;;18.80;99.90;;;;;;5113656;28;20019;-74
2023/06/25 05:01:02;;;;;;;9.38;7.55;;;18.80;99.90;;;;;;5113394;28;20035;-73
2023/06/25 05:03:28;;;;;;;10.80;6.85;;;18.90;99.90;;;;;;5113564;28;20069;-74
2023/06/25 05:05:54;;;;;;;10.90;7.32;;;19.10;99.90;;;;;;5113491;28;20517;-72
2023/06/25 05:08:20;;;;;;;8.55;7.38;;;19.40;99.10;;;;;;5095154;28;20024;-73
2023/06/25 05:10:45;;;;;;;8.60;6.72;;;19.60;97.70;;;;;;5113782;28;20106;-73
2023/06/25 05:13:11;;;;;;;8.48;7.28;;;19.60;96.90;;;;;;5113029;28;20073;-74
2023/06/25 05:15:39;;;;;;;10.38;7.47;;;19.60;96.70;;;;;;5113728;28;20333;-73
2023/06/25 05:18:06;;;;;;;10.93;7.38;;;19.50;96.60;;;;;;5113320;28;20019;-73
2023/06/25 05:20:35;;;;;;;7.38;6.55;;;19.40;96.70;;;;;;5113529;28;20497;-73
2023/06/25 05:23:02;;;;;;;8.45;7.00;;;19.60;97.40;;;;;;5113079;28;20410;-73
2023/06/25 05:25:28;;;;;;;10.40;6.85;;;19.90;95.30;;;;;;5113210;28;20370;-73
2023/06/25 05:27:53;;;;;;;9.75;6.65;;;20.20;95.00;;;;;;5113774;28;20095;-73
2023/06/25 05:30:19;;;;;;;11.63;7.13;;;20.30;94.00;;;;;;5112830;28;20027;-73
2023/06/25 05:32:45;;;;;;;7.25;6.13;;;20.60;93.70;;;;;;5113166;28;20026;-72
2023/06/25 05:35:10;;;;;;;7.65;6.47;;;20.80;93.70;;;;;;5114234;27;20053;-72
2023/06/25 05:37:36;;;;;;;11.63;6.25;;;21.20;93.60;;;;;;5133761;28;20075;-72
2023/06/25 05:40:02;;;;;;;8.10;7.13;;;21.50;91.70;;;;;;5133237;27;20020;-71
2023/06/25 05:42:29;;;;;;;9.70;5.97;;;21.80;90.40;;;;;;5133848;27;20076;-73
2023/06/25 05:44:54;;;;;;;10.57;6.35;;;22.10;89.80;;;;;;5133885;28;20168;-72
2023/06/25 05:47:20;;;;;;;6.70;5.85;;;22.30;88.60;;;;;;5133712;28;20530;-72
2023/06/25 05:49:45;;;;;;;7.55;6.20;;;22.70;86.00;;;;;;5133809;28;20059;-73
2023/06/25 05:52:11;;;;;;;8.98;6.10;;;22.90;83.60;;;;;;5133088;28;20102;-72
2023/06/25 05:54:37;;;;;;;7.65;6.03;;;23.10;82.10;;;;;;5133775;28;20447;-72
2023/06/25 05:57:03;;;;;;;10.88;6.55;;;23.30;81.40;;;;;;5133390;28;20027;-73
2023/06/25 05:59:28;;;;;;;7.63;6.03;;;23.50;80.30;;;;;;5133782;28;20023;-72
2023/06/25 06:01:54;;;;;;;9.02;6.65;;;23.90;80.50;;;;;;5133358;28;20031;-73
2023/06/25 06:04:20;;;;;;;6.68;5.65;;;24.40;77.40;;;;;;5133268;28;20047;-72
2023/06/25 06:06:45;;;;;;;11.23;6.22;;;24.60;76.00;;;;;;5133688;28;20464;-72
2023/06/25 06:09:11;;;;;;;8.55;5.93;;;25.10;74.50;;;;;;5133193;28;20023;-73
2023/06/25 06:11:36;;;;;;;10.30;5.70;;;25.50;71.20;;;;;;5134003;28;20023;-73
2023/06/25 06:14:02;;;;;;;7.63;5.57;;;25.90;70.40;;;;;;5132954;28;20023;-75
2023/06/25 06:16:27;;;;;;;6.38;5.40;;;26.30;67.60;;;;;;5133609;28;20026;-73
2023/06/25 06:18:53;;;;;;;7.60;5.45;;;27.00;66.50;;;;;;5133648;28;20050;-73
2023/06/25 06:21:19;;;;;;;7.85;5.63;;;27.20;63.30;;;;;;5133125;28;20073;-73
2023/06/25 06:23:44;;;;;;;7.95;6.05;;;27.30;63.00;;;;;;5115230;28;20019;-73
2023/06/25 06:26:10;;;;;;;7.57;5.70;;;27.30;62.20;;;;;;5133969;27;20060;-74
2023/06/25 06:28:36;;;;;;;7.90;5.72;;;27.70;62.20;;;;;;5137486;27;20458;-73
2023/06/25 06:31:01;;;;;;;7.05;5.70;;;28.30;60.20;;;;;;5137280;27;20075;-73
2023/06/25 06:33:27;;;;;;;7.70;5.47;;;28.90;59.20;;;;;;5136964;27;20023;-74
2023/06/25 06:35:52;;;;;;;6.38;5.68;;;29.80;56.70;;;;;;5137333;27;20019;-73
2023/06/25 06:38:18;;;;;;;6.43;5.63;;;30.10;55.70;;;;;;5131263;27;20023;-74
2023/06/25 06:40:44;;;;;;;6.47;5.75;;;30.20;55.00;;;;;;5116382;28;20028;-74
2023/06/25 06:43:09;;;;;;;9.27;5.60;;;30.40;52.40;;;;;;5115956;28;20035;-74
2023/06/25 06:45:35;;;;;;;8.40;6.15;;;30.00;54.70;;;;;;5116476;28;20074;-74
2023/06/25 06:48:00;;;;;;;7.10;5.82;;;30.60;52.60;;;;;;5116442;28;20023;-74
2023/06/25 06:50:26;;;;;;;10.02;5.22;;;31.20;50.20;;;;;;5115793;28;20444;-74
2023/06/25 06:52:52;;;;;;;7.30;5.82;;;30.90;51.50;;;;;;5118594;27;20026;-73
2023/06/25 06:55:19;;;;;;;6.43;5.82;;;31.80;50.10;;;;;;5115787;28;20085;-74
2023/06/25 06:57:44;;;;;;;6.10;5.25;;;32.10;48.10;;;;;;5116258;28;20019;-74
2023/06/25 07:00:10;;;;;;;7.85;5.53;;;31.90;48.40;;;;;;5115834;28;20026;-74
2023/06/25 07:02:36;;;;;;;7.03;5.60;;;32.30;48.30;;;;;;5116058;28;20028;-74
2023/06/25 07:05:02;;;;;;;7.55;5.78;;;32.90;47.10;;;;;;5116117;28;20405;-74
2023/06/25 07:07:27;;;;;;;10.43;6.60;;;33.20;46.80;;;;;;5115571;28;20034;-74
2023/06/25 07:09:53;;;;;;;6.45;5.75;;;33.10;44.30;;;;;;5116003;28;20024;-74
2023/06/25 07:12:20;;;;;;;6.63;5.97;;;33.10;45.10;;;;;;5115493;28;20072;-74
2023/06/25 07:14:45;;;;;;;7.55;5.85;;;33.30;45.00;;;;;;5115597;28;20097;-74
2023/06/25 07:17:11;;;;;;;7.82;5.60;;;33.70;44.70;;;;;;5115539;28;20020;-75
2023/06/25 07:19:36;;;;;;;7.43;6.38;;;33.80;43.60;;;;;;5115534;28;20019;-74
2023/06/25 07:22:02;;;;;;;6.45;5.82;;;33.50;43.30;;;;;;5115418;28;20039;-74
2023/06/25 07:24:28;;;;;;;6.35;5.40;;;33.10;44.10;;;;;;5114864;28;20035;-74
2023/06/25 07:26:53;;;;;;;6.95;5.88;;;33.20;44.30;;;;;;5115337;28;20023;-74
2023/06/25 07:29:19;;;;;;;7.45;5.55;;;33.30;45.30;;;;;;5115274;28;20020;-74
2023/06/25 07:31:44;;;;;;;7.88;5.88;;;33.50;44.50;;;;;;5115727;28;20101;-74
2023/06/25 07:34:10;;;;;;;8.20;5.55;;;33.60;43.80;;;;;;5115046;28;20058;-74
2023/06/25 07:36:36;;;;;;;5.90;5.38;;;33.60;43.80;;;;;;5115259;28;20039;-74
2023/06/25 07:39:04;;;;;;;8.98;5.68;;;33.40;44.30;;;;;;5115309;28;20023;-74
2023/06/25 07:41:30;;;;;;;7.78;6.00;;;33.00;44.70;;;;;;5116981;27;20020;-73
2023/06/25 07:43:56;;;;;;;8.32;5.85;;;33.50;43.70;;;;;;5115415;28;20031;-73
2023/06/25 07:46:23;;;;;;;7.55;6.35;;;33.50;44.10;;;;;;5114643;28;20069;-73
2023/06/25 07:48:48;;;;;;;7.57;5.80;;;33.90;42.60;;;;;;5114924;28;20034;-73
2023/06/25 07:51:14;;;;;;;6.80;6.07;;;34.30;41.90;;;;;;5096677;28;20035;-73
2023/06/25 07:53:39;;;;;;;5.93;5.32;;;34.00;41.20;;;;;;5096931;28;20464;-73
2023/06/25 07:56:05;;;;;;;6.13;5.32;;;33.90;40.90;;;;;;5114744;28;20015;-73
2023/06/25 07:58:31;;;;;;;7.70;5.40;;;34.30;42.50;;;;;;5114958;28;20089;-73
2023/06/25 08:00:57;;;;;;;6.32;5.60;;;34.40;41.40;;;;;;5115090;28;20448;-73
2023/06/25 08:03:22;;;;;;;6.72;5.53;;;34.10;41.70;;;;;;5096314;28;20024;-73
2023/06/25 08:05:48;;;;;;;5.95;5.38;;;34.00;42.50;;;;;;5114939;28;20460;-73
2023/06/25 08:08:13;;;;;;;6.25;5.63;;;33.70;42.00;;;;;;5114276;28;20023;-73
2023/06/25 08:10:39;;;;;;;6.22;5.57;;;33.40;42.20;;;;;;5115095;28;20024;-73
2023/06/25 08:13:05;;;;;;;7.07;5.65;;;33.40;43.70;;;;;;5114435;28;20367;-73
2023/06/25 08:15:30;;;;;;;6.68;5.97;;;33.30;42.90;;;;;;5114388;28;20062;-72
2023/06/25 08:17:56;;;;;;;6.85;5.97;;;32.70;44.10;;;;;;5114939;28;20081;-73
2023/06/25 08:20:21;;;;;;;8.32;6.13;;;32.80;44.70;;;;;;5114068;28;20047;-73
2023/06/25 08:22:47;;;;;;;6.25;5.53;;;32.70;44.10;;;;;;5114522;28;20034;-72
2023/06/25 08:25:21;;;;;;;7.40;6.18;;;32.20;45.70;;;;;;5114049;28;20095;-73
2023/06/25 08:27:46;;;;;;;12.38;6.00;;;31.90;45.10;;;;;;5096286;28;20098;-72
2023/06/25 08:30:12;;;;;;;7.93;5.82;;;32.00;45.10;;;;;;5113939;28;20102;-73
2023/06/25 08:32:38;;;;;;;7.10;5.90;;;31.80;45.10;;;;;;5114047;28;20024;-73
2023/06/25 08:35:04;;;;;;;7.90;6.57;;;31.60;45.90;;;;;;5096147;28;20440;-73
2023/06/25 08:37:29;;;;;;;6.85;5.90;;;31.30;46.10;;;;;;5113926;28;20015;-72
2023/06/25 08:39:55;;;;;;;7.15;6.13;;;31.10;46.50;;;;;;5113980;28;20035;-74
2023/06/25 08:42:20;;;;;;;7.22;5.75;;;31.00;47.20;;;;;;5113349;28;20082;-73
2023/06/25 08:44:46;;;;;;;7.70;5.82;;;30.90;47.60;;;;;;5114175;28;20027;-73
2023/06/25 08:47:18;;;;;;;8.57;6.13;;;30.70;47.00;;;;;;5115216;27;20044;-72
2023/06/25 08:49:48;;;;;;;9.52;5.72;;;30.50;46.80;;;;;;5113139;28;20589;-73
2023/06/25 08:52:15;;;;;;;6.70;6.00;;;30.10;47.50;;;;;;5113234;28;20083;-73
2023/06/25 08:54:43;;;;;;;7.15;5.80;;;30.10;48.80;;;;;;5114308;28;20020;-74
2023/06/25 08:57:08;;;;;;;7.97;6.38;;;30.10;49.40;;;;;;5113637;28;20023;-73
2023/06/25 08:59:34;;;;;;;8.18;6.28;;;30.00;48.10;;;;;;5116066;27;20479;-72
2023/06/25 09:01:59;;;;;;;8.38;6.07;;;29.90;49.30;;;;;;5095565;28;20019;-72
2023/06/25 09:04:25;;;;;;;7.03;6.15;;;29.60;49.30;;;;;;5113097;28;20023;-72
2023/06/25 09:06:52;;;;;;;7.72;6.70;;;29.30;47.80;;;;;;5113442;28;20095;-72
2023/06/25 09:09:17;;;;;;;8.23;6.43;;;28.90;48.50;;;;;;5113348;28;20051;-73
2023/06/25 09:11:43;;;;;;;9.65;6.80;;;28.50;50.10;;;;;;5113598;28;20074;-72
2023/06/25 09:14:08;;;;;;;7.75;6.30;;;28.10;51.40;;;;;;5113273;28;20440;-73
2023/06/25 09:16:49;;;;;;;12.45;5.80;;;28.10;50.90;;;;;;5113152;28;20183;-73
2023/06/25 09:19:19;;;;;;;10.73;6.65;;;28.10;50.30;;;;;;5113523;28;20378;-80
2023/06/25 09:21:46;;;;;;;9.33;5.87;;;27.90;49.50;;;;;;5113267;28;20034;-73
2023/06/25 09:24:19;;;;;;;6.90;5.85;;;27.90;50.60;;;;;;5095200;28;20471;-72
2023/06/25 09:26:53;;;;;;;7.72;6.15;;;27.80;49.10;;;;;;5095388;28;20333;-72
2023/06/25 09:29:20;;;;;;;6.72;6.03;;;27.40;49.00;;;;;;5112717;28;20023;-73
2023/06/25 09:31:47;;;;;;;7.72;5.68;;;27.20;49.90;;;;;;5104823;28;20019;-72
2023/06/25 09:34:15;;;;;;;7.45;6.13;;;27.20;50.10;;;;;;5133783;27;20023;-72
2023/06/25 09:36:41;;;;;;;6.93;5.80;;;27.20;51.10;;;;;;5133610;27;20068;-72
2023/06/25 09:39:09;;;;;;;8.68;5.93;;;27.30;52.20;;;;;;5133769;27;20184;-72
2023/06/25 09:41:36;;;;;;;9.68;6.63;;;27.40;49.90;;;;;;5133309;27;20042;-72
2023/06/25 09:44:04;;;;;;;7.82;6.75;;;27.30;48.70;;;;;;5133637;27;20054;-73
2023/06/25 09:46:33;;;;;;;7.22;6.40;;;27.20;51.10;;;;;;5132854;28;20035;-73
2023/06/25 09:49:01;;;;;;;7.40;6.25;;;27.10;53.50;;;;;;5133551;28;20019;-73
2023/06/25 09:51:33;;;;;;;9.05;7.13;;;27.10;53.40;;;;;;5133175;28;20128;-73
2023/06/25 09:54:02;;;;;;;9.70;6.60;;;26.90;53.70;;;;;;5133744;28;20015;-73
2023/06/25 09:56:29;;;;;;;9.90;6.50;;;26.90;52.50;;;;;;5133197;28;20034;-74
2023/06/25 09:58:55;;;;;;;9.82;5.80;;;26.80;52.80;;;;;;5133350;28;20106;-73
2023/06/25 10:01:21;;;;;;;8.93;7.28;;;26.80;52.80;;;;;;5135770;27;20019;-74
2023/06/25 10:03:47;;;;;;;7.97;6.22;;;26.80;53.70;;;;;;5137657;27;20068;-73
2023/06/25 10:06:13;;;;;;;9.30;6.78;;;26.70;53.00;;;;;;5137790;27;20029;-73
2023/06/25 10:08:39;;;;;;;7.35;6.05;;;26.60;53.10;;;;;;5137385;27;20015;-73
2023/06/25 10:11:05;;;;;;;7.53;6.55;;;26.60;53.20;;;;;;5137723;27;20439;-73
2023/06/25 10:13:31;;;;;;;7.68;6.65;;;26.60;53.30;;;;;;5137292;27;20023;-73
2023/06/25 10:16:02;;;;;;;8.80;6.57;;;26.70;54.30;;;;;;5137659;27;20030;-73
2023/06/25 10:18:29;;;;;;;7.05;6.00;;;26.60;54.60;;;;;;5137133;27;20027;-73
2023/06/25 10:20:58;;;;;;;7.72;6.90;;;26.50;53.50;;;;;;5137422;27;20027;-73
2023/06/25 10:23:24;;;;;;;8.40;6.57;;;26.40;54.00;;;;;;5137128;27;20027;-73
2023/06/25 10:25:54;;;;;;;9.05;6.97;;;26.40;54.70;;;;;;5137724;27;20360;-73
2023/06/25 10:28:29;;;;;;;7.30;6.60;;;26.40;55.10;;;;;;5137086;27;20019;-81
2023/06/25 10:30:54;;;;;;;7.28;6.45;;;26.40;55.60;;;;;;5137317;27;20019;-73
2023/06/25 10:33:21;;;;;;;10.30;7.13;;;26.50;55.10;;;;;;5136779;27;20094;-80
2023/06/25 10:35:55;;;;;;;8.00;5.90;;;26.40;54.10;;;;;;5137288;27;20023;-73
2023/06/25 10:38:21;;;;;;;10.52;6.93;;;26.40;55.00;;;;;;5136918;27;20023;-76
2023/06/25 10:40:47;;;;;;;8.70;6.80;;;26.30;56.00;;;;;;5136836;27;20038;-73
2023/06/25 10:43:18;;;;;;;10.73;7.30;;;26.20;55.70;;;;;;5137167;27;20096;-73
2023/06/25 10:45:53;;;;;;;;;;;26.20;55.50;;;;;;5119041;27;20036;-73
2023/06/25 10:48:20;;;;;;;9.30;6.32;;;26.20;55.50;;;;;;5116292;28;19982;-73
2023/06/25 10:50:46;;;;;;;7.78;6.97;;;26.30;56.30;;;;;;5118436;27;20039;-73
2023/06/25 10:53:13;;;;;;;7.95;7.05;;;26.30;56.40;;;;;;5116328;28;20460;-73
2023/06/25 10:55:43;;;;;;;8.13;6.85;;;26.30;58.20;;;;;;5097614;28;20340;-73
2023/06/25 10:58:09;;;;;;;10.10;7.65;;;26.30;57.40;;;;;;5116241;28;20019;-73
2023/06/25 11:00:35;;;;;;;10.15;7.05;;;26.10;55.30;;;;;;5115735;28;20027;-73
2023/06/25 11:03:01;;;;;;;12.45;7.43;;;26.00;56.60;;;;;;5116305;28;20024;-72
2023/06/25 11:05:34;;;;;;;9.77;6.90;;;26.00;57.70;;;;;;5115713;28;20072;-73
2023/06/25 11:08:00;;;;;;;11.18;7.10;;;26.20;56.00;;;;;;5115976;28;20107;-73
2023/06/25 11:10:26;;;;;;;8.15;7.03;;;26.20;55.10;;;;;;5115570;28;20368;-73
2023/06/25 11:12:51;;;;;;;8.18;7.05;;;26.40;55.20;;;;;;5115385;28;20099;-72
2023/06/25 11:15:17;;;;;;;14.32;7.50;;;26.50;55.80;;;;;;5115693;28;20353;-72
2023/06/25 11:17:44;;;;;;;12.90;7.13;;;26.50;55.60;;;;;;5115443;28;20305;-72
2023/06/25 11:20:10;;;;;;;10.98;7.47;;;26.40;55.30;;;;;;5115563;28;20019;-72
2023/06/25 11:22:42;;;;;;;8.77;6.68;;;26.40;54.70;;;;;;5115297;28;20103;-73
2023/06/25 11:25:10;;;;;;;8.73;6.90;;;26.40;55.40;;;;;;5115718;27;20472;-73
2023/06/25 11:27:37;;;;;;;7.18;6.47;;;26.50;56.30;;;;;;5115452;28;20030;-73
2023/06/25 11:30:03;;;;;;;9.48;7.05;;;26.40;54.10;;;;;;5115520;28;20535;-73
2023/06/25 11:32:30;;;;;;;9.55;7.45;;;26.50;53.20;;;;;;5115218;28;20020;-73
2023/06/25 11:34:56;;;;;;;8.68;6.43;;;26.50;52.50;;;;;;5115640;28;20065;-73
2023/06/25 11:37:22;;;;;;;7.60;6.55;;;26.60;53.70;;;;;;5115448;28;20035;-73
2023/06/25 11:39:52;;;;;;;9.73;6.82;;;26.70;53.10;;;;;;5115106;28;20016;-73
2023/06/25 11:42:23;;;;;;;9.05;6.80;;;26.60;52.30;;;;;;5115317;28;20083;-73
2023/06/25 11:45:05;;;;;;;7.97;6.45;;;26.60;52.40;;;;;;5114731;28;20054;-73
2023/06/25 11:47:32;;;;;;;9.68;7.82;;;26.70;53.20;;;;;;5114683;28;20487;-73
2023/06/25 11:49:59;;;;;;;7.75;6.95;;;26.70;56.00;;;;;;5115333;28;20023;-73
2023/06/25 11:52:25;;;;;;;10.05;7.13;;;26.50;55.00;;;;;;5115258;28;20023;-73
2023/06/25 11:54:50;;;;;;;10.50;6.88;;;26.50;54.70;;;;;;5114558;28;20022;-73
2023/06/25 11:57:17;;;;;;;7.93;6.93;;;26.60;54.30;;;;;;5115213;28;20106;-73
2023/06/25 11:59:43;;;;;;;8.02;6.35;;;26.60;54.50;;;;;;5114325;28;20352;-73
2023/06/25 12:02:12;;;;;;;7.65;6.85;;;26.70;55.60;;;;;;5114927;28;20049;-73
2023/06/25 12:04:38;;;;;;;9.98;7.20;;;26.70;54.80;;;;;;5114453;28;20059;-73
2023/06/25 12:07:04;;;;;;;9.73;7.13;;;26.70;53.50;;;;;;5114867;28;20015;-73
2023/06/25 12:09:29;;;;;;;9.63;6.78;;;26.70;55.50;;;;;;5114316;28;20466;-73
2023/06/25 12:11:55;;;;;;;14.32;7.47;;;26.60;53.30;;;;;;5114973;28;20055;-73
2023/06/25 12:14:21;;;;;;;7.07;5.88;;;26.60;53.60;;;;;;5114755;28;20081;-73
2023/06/25 12:16:47;;;;;;;7.07;6.20;;;26.60;51.90;;;;;;5114714;28;20464;-73
2023/06/25 12:19:13;;;;;;;8.65;6.60;;;26.70;50.50;;;;;;5115061;28;20031;-73
2023/06/25 12:21:38;;;;;;;8.60;7.30;;;26.70;49.90;;;;;;5114224;28;20027;-74
2023/06/25 12:24:04;;;;;;;7.90;6.32;;;26.70;50.70;;;;;;5113739;28;20105;-73
2023/06/25 12:26:30;;;;;;;7.43;6.25;;;26.70;51.80;;;;;;5114209;28;20024;-74
2023/06/25 12:28:56;;;;;;;6.90;6.25;;;26.60;50.60;;;;;;5114356;28;20027;-73
2023/06/25 12:31:22;;;;;;;10.00;6.80;;;26.50;50.80;;;;;;5114221;28;20019;-73
2023/06/25 12:33:48;;;;;;;7.68;6.60;;;26.50;51.30;;;;;;5114067;28;20080;-74
2023/06/25 12:36:13;;;;;;;7.38;6.10;;;26.50;49.70;;;;;;5114349;28;20058;-73
2023/06/25 12:38:39;;;;;;;7.20;6.22;;;26.40;49.10;;;;;;5114347;27;20460;-74
2023/06/25 12:41:04;;;;;;;7.15;6.45;;;26.30;49.10;;;;;;5116289;27;20026;-73